Time;durP1;ratioP1;P1;durP2;ratioP2;P2;SDS_P1;SDS_P2;PMS_P1;PMS_P2;Temp;Humidity;BMP_temperature;BMP_pressure;BME280_temperature;BME280_humidity;BME280_pressure;Samples;Min_cycle;Max_cycle;Signal;HPM_P1;HPM_P2
2021/09/23 00:00:59;;;;;;;;;;;;;;;8.76;73.89;99847.44;5033382;28;791;-59
2021/09/23 00:05:55;;;;;;;;;;;;;;;8.30;75.74;99848.03;5032743;28;829;-59
2021/09/23 00:08:23;;;;;;;;;;;;;;;8.16;75.67;99853.47;5032797;28;830;-59
2021/09/23 00:10:50;;;;;;;;;;;;;;;8.00;76.58;99855.72;5032728;28;878;-59
2021/09/23 00:13:17;;;;;;;;;;;;;;;7.89;76.88;99856.44;5032689;28;870;-60
2021/09/23 00:15:44;;;;;;;;;;;;;;;7.74;77.33;99855.53;5032543;28;1941;-59
2021/09/23 00:18:15;;;;;;;;;;;;;;;7.64;78.98;99858.22;5032427;28;1282;-59
2021/09/23 00:20:44;;;;;;;;;;;;;;;7.49;79.23;99871.06;5032619;28;862;-59
2021/09/23 00:23:11;;;;;;;;;;;;;;;7.40;79.87;99874.13;5032457;28;819;-59
2021/09/23 00:25:38;;;;;;;;;;;;;;;7.34;79.87;99875.66;5032381;28;803;-59
2021/09/23 00:28:06;;;;;;;;;;;;;;;7.30;80.28;99872.09;5032604;28;901;-59
2021/09/23 00:30:33;;;;;;;;;;;;;;;7.16;79.77;99873.50;5014622;28;1319;-59
2021/09/23 00:32:59;;;;;;;;;;;;;;;7.01;80.25;99863.53;5032333;28;882;-59
2021/09/23 00:35:26;;;;;;;;;;;;;;;6.92;81.16;99866.59;5031751;28;1954;-59
2021/09/23 00:37:53;;;;;;;;;;;;;;;6.93;81.67;99872.88;5032188;28;795;-59
2021/09/23 00:40:21;;;;;;;;;;;;;;;6.89;80.87;99872.03;5032202;28;854;-59
2021/09/23 00:42:48;;;;;;;;;;;;;;;6.83;80.77;99868.03;5032347;28;787;-59
2021/09/23 00:45:16;;;;;;;;;;;;;;;6.70;81.25;99870.25;5032101;28;830;-59
2021/09/23 00:47:43;;;;;;;;;;;;;;;6.56;81.66;99864.63;5032011;28;799;-59
2021/09/23 00:50:11;;;;;;;;;;;;;;;6.48;82.77;99860.97;5032001;28;913;-59
2021/09/23 00:52:37;;;;;;;;;;;;;;;6.46;82.56;99863.31;5031976;28;846;-59
2021/09/23 00:55:07;;;;;;;;;;;;;;;6.44;82.98;99862.88;5031995;28;870;-59
2021/09/23 00:57:34;;;;;;;;;;;;;;;6.37;83.32;99860.84;5031732;28;865;-59
2021/09/23 01:00:02;;;;;;;;;;;;;;;6.29;83.86;99864.66;5014106;28;1442;-59
2021/09/23 01:02:29;;;;;;;;;;;;;;;6.19;83.24;99862.53;5031785;28;881;-59
2021/09/23 01:04:56;;;;;;;;;;;;;;;6.13;83.81;99865.63;5031718;28;858;-59
2021/09/23 01:07:23;;;;;;;;;;;;;;;6.17;83.94;99868.44;5031764;28;819;-59
2021/09/23 01:09:51;;;;;;;;;;;;;;;6.22;84.01;99862.59;5031708;28;819;-59
2021/09/23 01:12:18;;;;;;;;;;;;;;;6.26;84.46;99870.91;5031663;28;811;-59
2021/09/23 01:14:45;;;;;;;;;;;;;;;6.29;83.94;99867.41;5031639;28;815;-59
2021/09/23 01:17:12;;;;;;;;;;;;;;;6.24;84.22;99868.50;5013655;28;2037;-59
2021/09/23 01:19:40;;;;;;;;;;;;;;;6.18;84.55;99870.00;5031861;28;815;-59
2021/09/23 01:22:07;;;;;;;;;;;;;;;6.15;84.11;99865.25;5031505;28;830;-59
2021/09/23 01:24:35;;;;;;;;;;;;;;;6.11;84.31;99862.47;5031530;28;822;-59
2021/09/23 01:27:03;;;;;;;;;;;;;;;6.11;84.46;99864.41;5031394;28;870;-59
2021/09/23 01:29:30;;;;;;;;;;;;;;;6.10;84.31;99862.81;5031580;28;811;-59
2021/09/23 01:31:57;;;;;;;;;;;;;;;6.04;84.89;99858.81;5031477;28;830;-59
2021/09/23 01:34:24;;;;;;;;;;;;;;;6.01;84.80;99862.31;5031445;28;818;-59
2021/09/23 01:36:50;;;;;;;;;;;;;;;6.00;84.98;99872.50;5031330;28;1906;-59
2021/09/23 01:39:18;;;;;;;;;;;;;;;5.92;85.16;99851.56;5031368;28;795;-59
2021/09/23 01:41:45;;;;;;;;;;;;;;;5.88;85.34;99861.69;5013693;28;866;-59
2021/09/23 01:44:11;;;;;;;;;;;;;;;5.88;85.39;99862.47;5031257;28;837;-59
2021/09/23 01:46:38;;;;;;;;;;;;;;;5.87;85.57;99863.66;5033391;28;854;-59
2021/09/23 01:49:05;;;;;;;;;;;;;;;5.82;85.83;99866.69;5035422;28;853;-59
2021/09/23 01:51:32;;;;;;;;;;;;;;;5.75;85.24;99866.59;5017523;28;1406;-59
2021/09/23 01:53:59;;;;;;;;;;;;;;;5.70;86.08;99866.91;5035254;28;905;-59
2021/09/23 01:56:26;;;;;;;;;;;;;;;5.68;86.15;99861.78;5035089;28;1947;-59
2021/09/23 01:58:53;;;;;;;;;;;;;;;5.69;86.89;99862.59;5035170;28;822;-59
2021/09/23 02:01:21;;;;;;;;;;;;;;;5.79;86.54;99870.19;5035149;28;893;-59
2021/09/23 02:03:48;;;;;;;;;;;;;;;5.92;87.30;99866.06;5035131;28;847;-59
2021/09/23 02:06:15;;;;;;;;;;;;;;;6.08;86.89;99860.47;5034981;28;831;-59
2021/09/23 02:08:42;;;;;;;;;;;;;;;6.24;86.65;99865.78;5035022;28;791;-59
2021/09/23 02:11:09;;;;;;;;;;;;;;;6.34;85.89;99867.09;5034897;28;831;-59
2021/09/23 02:13:36;;;;;;;;;;;;;;;6.36;85.94;99867.50;5017150;28;1188;-59
2021/09/23 02:16:02;;;;;;;;;;;;;;;6.38;86.53;99864.38;5034870;28;1943;-59
2021/09/23 02:18:29;;;;;;;;;;;;;;;6.42;86.01;99862.47;5034585;28;1260;-59
2021/09/23 02:20:56;;;;;;;;;;;;;;;6.37;85.07;99862.81;5034840;28;831;-59
2021/09/23 02:23:23;;;;;;;;;;;;;;;6.29;86.15;99868.22;5034919;28;811;-59
2021/09/23 02:25:48;;;;;;;;;;;;;;;6.21;85.59;99865.72;5016852;28;1561;-59
2021/09/23 02:28:16;;;;;;;;;;;;;;;6.17;85.55;99870.38;5034925;28;799;-59
2021/09/23 02:30:42;;;;;;;;;;;;;;;6.12;86.17;99868.72;5034555;28;918;-59
2021/09/23 02:33:09;;;;;;;;;;;;;;;6.14;85.81;99869.16;5034574;28;815;-59
2021/09/23 02:35:35;;;;;;;;;;;;;;;6.08;85.36;99876.13;5034380;28;1914;-59
2021/09/23 02:38:02;;;;;;;;;;;;;;;5.98;85.77;99874.03;5034470;28;807;-59
2021/09/23 02:40:29;;;;;;;;;;;;;;;5.88;86.03;99881.69;5034373;28;834;-59
2021/09/23 02:42:56;;;;;;;;;;;;;;;5.75;85.83;99879.53;5034347;28;822;-59
2021/09/23 02:45:23;;;;;;;;;;;;;;;5.63;85.63;99873.09;5034390;28;815;-59
2021/09/23 02:47:50;;;;;;;;;;;;;;;5.65;86.64;99878.19;5034427;28;854;-59
2021/09/23 02:50:17;;;;;;;;;;;;;;;5.82;86.54;99876.88;5034221;28;850;-59
2021/09/23 02:52:43;;;;;;;;;;;;;;;5.95;86.81;99870.06;5034461;28;862;-59
2021/09/23 02:55:10;;;;;;;;;;;;;;;6.01;86.20;99873.28;5034083;28;882;-59
2021/09/23 02:57:37;;;;;;;;;;;;;;;5.96;85.85;99874.41;5033626;28;906;-59
2021/09/23 03:00:04;;;;;;;;;;;;;;;5.88;86.27;99867.19;5034019;28;803;-59
2021/09/23 03:02:31;;;;;;;;;;;;;;;5.87;86.04;99862.88;5016226;28;1208;-59
2021/09/23 03:04:57;;;;;;;;;;;;;;;5.87;86.35;99869.16;5034012;28;874;-59
2021/09/23 03:07:24;;;;;;;;;;;;;;;5.85;86.79;99863.22;5034223;28;795;-59
2021/09/23 03:09:51;;;;;;;;;;;;;;;5.86;86.30;99867.53;5033856;28;862;-59
2021/09/23 03:12:19;;;;;;;;;;;;;;;5.91;86.79;99870.00;5033849;28;865;-59
2021/09/23 03:14:46;;;;;;;;;;;;;;;6.17;87.14;99870.38;5033776;28;799;-59
2021/09/23 03:17:12;;;;;;;;;;;;;;;6.40;86.78;99867.53;5033502;28;1949;-60
2021/09/23 03:19:39;;;;;;;;;;;;;;;6.57;86.78;99866.97;5033753;28;847;-59
2021/09/23 03:22:06;;;;;;;;;;;;;;;6.59;86.44;99870.13;5033656;28;847;-59
2021/09/23 03:24:33;;;;;;;;;;;;;;;6.70;85.96;99875.75;5033496;28;855;-59
2021/09/23 03:26:59;;;;;;;;;;;;;;;6.82;86.51;99878.25;5033562;28;851;-59
2021/09/23 03:29:26;;;;;;;;;;;;;;;6.86;86.03;99881.06;5033509;28;811;-59
2021/09/23 03:31:53;;;;;;;;;;;;;;;6.86;85.75;99890.06;5033429;28;882;-59
2021/09/23 03:34:20;;;;;;;;;;;;;;;6.85;85.76;99888.50;5033727;28;831;-59
2021/09/23 03:36:46;;;;;;;;;;;;;;;6.86;86.55;99892.81;5033312;28;1969;-59
2021/09/23 03:39:13;;;;;;;;;;;;;;;6.98;85.99;99899.22;5033372;28;874;-59
2021/09/23 03:41:40;;;;;;;;;;;;;;;6.99;86.34;99882.38;5033453;28;853;-59
2021/09/23 03:44:07;;;;;;;;;;;;;;;7.01;86.13;99888.28;5033326;28;854;-59
2021/09/23 03:46:34;;;;;;;;;;;;;;;7.03;85.80;99885.94;5033202;28;934;-59
2021/09/23 03:49:01;;;;;;;;;;;;;;;7.09;85.99;99887.19;5015382;28;1192;-59
2021/09/23 03:51:28;;;;;;;;;;;;;;;7.11;85.49;99886.81;5033222;28;857;-59
2021/09/23 03:53:54;;;;;;;;;;;;;;;7.04;85.52;99897.72;5032979;28;905;-59
2021/09/23 03:56:21;;;;;;;;;;;;;;;7.01;85.73;99898.50;5032946;28;1889;-59
2021/09/23 03:58:46;;;;;;;;;;;;;;;6.98;85.59;99893.72;5032980;28;878;-59
2021/09/23 04:01:13;;;;;;;;;;;;;;;7.04;85.38;99898.53;5032969;28;799;-59
2021/09/23 04:03:40;;;;;;;;;;;;;;;7.11;85.22;99892.31;5032776;28;854;-59
2021/09/23 04:06:07;;;;;;;;;;;;;;;7.40;85.44;99912.63;5015093;28;859;-59
2021/09/23 04:08:34;;;;;;;;;;;;;;;7.57;85.04;99924.97;5031956;28;901;-59
2021/09/23 04:11:01;;;;;;;;;;;;;;;7.65;84.79;99912.88;5032710;28;838;-59
2021/09/23 04:13:28;;;;;;;;;;;;;;;7.74;83.93;99918.81;5032713;28;870;-59
2021/09/23 04:15:55;;;;;;;;;;;;;;;7.91;83.80;99916.59;5032626;28;1958;-59
2021/09/23 04:18:22;;;;;;;;;;;;;;;8.08;83.57;99910.44;5032472;28;1283;-59
2021/09/23 04:20:49;;;;;;;;;;;;;;;8.28;82.71;99922.00;5032597;28;839;-60
2021/09/23 04:23:16;;;;;;;;;;;;;;;8.37;82.32;99927.94;5032403;28;878;-59
2021/09/23 04:25:42;;;;;;;;;;;;;;;8.41;82.38;99925.25;5032419;28;811;-59
2021/09/23 04:28:09;;;;;;;;;;;;;;;8.43;82.06;99924.84;5032424;28;799;-59
2021/09/23 04:30:36;;;;;;;;;;;;;;;8.51;81.50;99927.28;5014589;28;1316;-59
2021/09/23 04:33:03;;;;;;;;;;;;;;;8.63;81.33;99928.91;5032230;28;967;-59
2021/09/23 04:35:30;;;;;;;;;;;;;;;8.79;80.96;99940.41;5032206;28;1917;-59
2021/09/23 04:37:57;;;;;;;;;;;;;;;9.01;80.30;99929.47;5032321;28;855;-59
2021/09/23 04:40:23;;;;;;;;;;;;;;;9.20;79.89;99939.38;5032137;28;839;-59
2021/09/23 04:42:50;;;;;;;;;;;;;;;9.29;79.43;99944.50;5032189;28;815;-59
2021/09/23 04:45:16;;;;;;;;;;;;;;;9.38;79.15;99945.69;5032077;28;799;-59
2021/09/23 04:47:44;;;;;;;;;;;;;;;9.48;79.00;99944.16;5032045;28;866;-59
2021/09/23 04:50:11;;;;;;;;;;;;;;;9.60;78.73;99954.00;5031980;28;831;-59
2021/09/23 04:52:37;;;;;;;;;;;;;;;9.68;78.29;99949.28;5031938;28;842;-59
2021/09/23 04:55:05;;;;;;;;;;;;;;;9.72;77.84;99944.56;5014146;28;1197;-59
2021/09/23 04:57:35;;;;;;;;;;;;;;;9.75;77.32;99946.53;5031972;28;1940;-59
2021/09/23 05:00:04;;;;;;;;;;;;;;;9.77;77.23;99950.50;5031979;28;890;-59
2021/09/23 05:02:32;;;;;;;;;;;;;;;9.89;77.08;99954.06;5031846;28;803;-59
2021/09/23 05:04:59;;;;;;;;;;;;;;;10.09;76.24;99952.47;5031856;28;823;-59
2021/09/23 05:07:27;;;;;;;;;;;;;;;10.31;75.45;99958.78;5031715;28;923;-59
2021/09/23 05:09:53;;;;;;;;;;;;;;;10.59;74.37;99966.22;5031758;28;859;-59
2021/09/23 05:17:30;;;;;;;;;;;;;;;10.77;72.93;99963.41;5348219;22;1690;-58
2021/09/23 05:19:57;;;;;;;;;;;;;;;10.69;72.91;99967.41;5012501;28;775;-57
2021/09/23 05:22:27;;;;;;;;;;;;;;;10.71;72.86;99970.56;5012028;28;838;-57
2021/09/23 05:24:54;;;;;;;;;;;;;;;10.76;72.20;99970.13;5011746;28;882;-57
2021/09/23 05:27:21;;;;;;;;;;;;;;;10.65;72.47;99963.88;4994324;28;984;-57
2021/09/23 05:29:48;;;;;;;;;;;;;;;10.64;72.43;99973.31;5011833;28;862;-57
2021/09/23 05:32:15;;;;;;;;;;;;;;;10.67;71.34;99963.44;5011850;28;822;-57
2021/09/23 05:34:42;;;;;;;;;;;;;;;10.59;70.61;99969.00;4994265;28;850;-56
2021/09/23 05:37:09;;;;;;;;;;;;;;;10.62;70.26;99970.97;5011625;28;1914;-57
2021/09/23 05:39:35;;;;;;;;;;;;;;;10.93;69.28;99971.28;5011695;28;938;-57
2021/09/23 05:42:02;;;;;;;;;;;;;;;11.06;68.88;99976.38;5011884;28;881;-57
2021/09/23 05:44:29;;;;;;;;;;;;;;;11.12;67.98;99978.31;5011708;28;914;-57
2021/09/23 05:46:57;;;;;;;;;;;;;;;11.34;67.14;99980.97;5011691;28;889;-57
2021/09/23 05:49:24;;;;;;;;;;;;;;;11.52;66.71;99989.97;5011661;28;890;-57
2021/09/23 05:51:51;;;;;;;;;;;;;;;11.62;65.69;99983.56;4994003;28;881;-57
2021/09/23 05:54:18;;;;;;;;;;;;;;;11.72;65.66;99995.78;5011604;28;856;-57
2021/09/23 05:56:45;;;;;;;;;;;;;;;11.62;65.23;99980.00;5011586;28;1941;-57
2021/09/23 05:59:12;;;;;;;;;;;;;;;11.63;64.59;99985.16;5011597;28;898;-57
2021/09/23 06:01:39;;;;;;;;;;;;;;;11.88;64.47;99992.53;5011555;28;854;-58
2021/09/23 06:04:06;;;;;;;;;;;;;;;12.38;63.43;99985.81;5011497;28;943;-58
2021/09/23 06:06:32;;;;;;;;;;;;;;;12.85;62.11;99997.19;5011450;28;998;-58
2021/09/23 06:09:00;;;;;;;;;;;;;;;13.30;60.54;99996.31;5011585;28;890;-58
2021/09/23 06:11:26;;;;;;;;;;;;;;;13.29;59.26;99998.28;4994327;28;847;-58
2021/09/23 06:14:00;;;;;;;;;;;;;;;13.95;58.68;99999.72;5011502;28;819;-58
2021/09/23 06:29:23;;;;;;;;;;;;;;;15.63;50.49;100015.28;5010227;28;1207;-58
2021/09/23 06:31:50;;;;;;;;;;;;;;;16.01;50.44;100014.84;5012184;28;818;-58
2021/09/23 06:34:15;;;;;;;;;;;;;;;15.70;49.72;99998.41;5014813;28;831;-58
2021/09/23 06:36:42;;;;;;;;;;;;;;;15.50;50.92;100009.59;5014782;28;1910;-58
2021/09/23 06:39:08;;;;;;;;;;;;;;;15.47;49.92;100001.34;5014793;28;851;-58
2021/09/23 06:41:34;;;;;;;;;;;;;;;15.61;50.09;100006.56;5014701;28;811;-58
2021/09/23 06:44:04;;;;;;;;;;;;;;;16.30;48.97;100016.94;5014690;28;874;-58
2021/09/23 06:46:31;;;;;;;;;;;;;;;16.66;47.57;100019.63;5014392;28;871;-58
2021/09/23 06:48:58;;;;;;;;;;;;;;;16.85;47.30;100014.34;4996974;28;1240;-58
2021/09/23 06:51:25;;;;;;;;;;;;;;;17.46;45.73;100019.00;5014550;28;795;-59
2021/09/23 06:53:52;;;;;;;;;;;;;;;17.69;44.65;100023.50;5014516;28;870;-58
2021/09/23 06:56:18;;;;;;;;;;;;;;;18.09;44.23;100008.28;5014305;28;1957;-58
2021/09/23 06:58:45;;;;;;;;;;;;;;;18.24;43.93;100003.00;5014444;28;822;-58
2021/09/23 07:01:11;;;;;;;;;;;;;;;18.57;43.46;100023.09;5014409;28;918;-58
2021/09/23 07:03:38;;;;;;;;;;;;;;;18.75;42.78;100020.47;5014550;28;866;-58
2021/09/23 07:06:06;;;;;;;;;;;;;;;18.31;42.75;100019.59;5014311;28;811;-58
2021/09/23 07:08:33;;;;;;;;;;;;;;;17.84;43.88;100032.25;5014305;28;826;-58
2021/09/23 07:11:02;;;;;;;;;;;;;;;17.99;43.86;100031.78;5014124;28;838;-58
2021/09/23 07:13:30;;;;;;;;;;;;;;;18.54;42.21;100035.97;5014089;28;961;-58
2021/09/23 07:15:59;;;;;;;;;;;;;;;19.37;40.61;100039.47;5013910;28;1894;-58
2021/09/23 07:18:26;;;;;;;;;;;;;;;19.57;40.37;100033.50;5013890;28;966;-58
2021/09/23 07:20:55;;;;;;;;;;;;;;;19.44;40.33;100043.22;5014035;28;815;-58
2021/09/23 07:23:23;;;;;;;;;;;;;;;19.70;40.26;100049.50;5014124;28;917;-58
2021/09/23 07:25:51;;;;;;;;;;;;;;;18.38;41.18;100043.75;5013747;28;843;-58
2021/09/23 07:41:20;;;;;;;;;;;;;;;17.66;43.90;100055.13;5014497;28;578;-58
2021/09/23 07:43:47;;;;;;;;;;;;;;;17.39;43.80;100058.31;5012258;28;826;-59
2021/09/23 07:46:14;;;;;;;;;;;;;;;17.01;45.01;100058.97;5013535;28;827;-58
2021/09/23 07:48:41;;;;;;;;;;;;;;;16.52;45.12;100061.81;5013446;28;858;-58
2021/09/23 07:51:08;;;;;;;;;;;;;;;16.39;46.09;100067.31;5013432;28;886;-59
2021/09/23 07:53:35;;;;;;;;;;;;;;;16.32;47.01;100062.72;5013556;28;946;-58
2021/09/23 07:56:02;;;;;;;;;;;;;;;16.76;45.56;100065.19;5013500;28;2005;-58
2021/09/23 07:58:29;;;;;;;;;;;;;;;16.44;46.05;100066.78;5013267;28;842;-58
2021/09/23 08:00:56;;;;;;;;;;;;;;;16.08;47.97;100070.44;4995587;28;1504;-58
2021/09/23 08:03:23;;;;;;;;;;;;;;;15.71;48.36;100080.81;5013139;28;858;-58
2021/09/23 08:05:50;;;;;;;;;;;;;;;15.52;48.91;100068.44;5012973;28;913;-58
2021/09/23 08:08:16;;;;;;;;;;;;;;;16.35;46.90;100066.63;4995621;28;951;-58
2021/09/23 08:10:43;;;;;;;;;;;;;;;17.28;44.76;100067.00;5013194;28;905;-58
2021/09/23 08:13:11;;;;;;;;;;;;;;;17.44;44.15;100068.94;5012918;28;783;-59
2021/09/23 08:15:38;;;;;;;;;;;;;;;16.50;46.21;100073.41;5012767;28;1941;-58
2021/09/23 08:21:13;;;;;;;;;;;;;;;15.78;47.59;100071.50;5012958;28;808;-58
2021/09/23 08:23:40;;;;;;;;;;;;;;;15.87;47.28;100077.31;5012739;28;930;-58
2021/09/23 08:26:07;;;;;;;;;;;;;;;16.14;46.86;100070.69;5012774;28;834;-58
2021/09/23 08:28:35;;;;;;;;;;;;;;;16.64;46.05;100071.47;5012717;28;822;-58
2021/09/23 08:31:03;;;;;;;;;;;;;;;16.52;45.67;100073.00;5012640;28;930;-58
2021/09/23 08:33:30;;;;;;;;;;;;;;;16.59;45.09;100064.44;5013004;28;898;-58
2021/09/23 08:35:57;;;;;;;;;;;;;;;16.78;44.98;100076.69;5012547;28;1969;-58
2021/09/23 08:38:24;;;;;;;;;;;;;;;17.28;44.50;100077.38;5013019;28;815;-58
2021/09/23 08:40:52;;;;;;;;;;;;;;;17.57;43.31;100074.56;5012583;28;1277;-59
2021/09/23 08:43:18;;;;;;;;;;;;;;;17.61;43.35;100069.66;5012830;28;784;-59
2021/09/23 08:45:45;;;;;;;;;;;;;;;16.88;44.06;100072.09;5012771;28;1138;-59
2021/09/23 08:48:12;;;;;;;;;;;;;;;16.28;46.08;100064.00;5012797;28;771;-58
2021/09/23 08:50:39;;;;;;;;;;;;;;;15.93;47.02;100066.41;5012636;28;795;-58
2021/09/23 08:53:08;;;;;;;;;;;;;;;15.56;47.46;100064.81;5012842;28;787;-58
2021/09/23 08:55:35;;;;;;;;;;;;;;;15.71;47.59;100066.06;5011817;28;1906;-58
2021/09/23 08:58:06;;;;;;;;;;;;;;;15.90;47.38;100065.28;5012438;28;847;-58
2021/09/23 09:00:34;;;;;;;;;;;;;;;15.93;47.39;100060.81;5012266;28;839;-58
2021/09/23 09:03:09;;;;;;;;;;;;;;;15.77;47.78;100067.16;5012244;28;858;-58
2021/09/23 09:05:37;;;;;;;;;;;;;;;15.82;47.81;100065.88;5012088;28;851;-58
2021/09/23 09:08:05;;;;;;;;;;;;;;;15.99;47.31;100063.91;5011966;28;1210;-58
2021/09/23 09:10:33;;;;;;;;;;;;;;;16.27;47.08;100062.44;5012059;28;931;-58
2021/09/23 09:13:04;;;;;;;;;;;;;;;16.65;46.19;100064.69;5011952;28;911;-58
2021/09/23 09:15:34;;;;;;;;;;;;;;;17.09;45.72;100068.72;5012564;28;1946;-58
2021/09/23 09:18:22;;;;;;;;;;;;;;;17.31;44.93;100063.31;5012038;28;834;-58
2021/09/23 09:21:03;;;;;;;;;;;;;;;16.81;44.86;100059.09;5011761;28;2193;-58
2021/09/23 09:23:39;;;;;;;;;;;;;;;16.86;45.01;100060.59;5011837;28;926;-58
2021/09/23 09:26:06;;;;;;;;;;;;;;;17.03;45.16;100052.97;5011787;28;855;-58
2021/09/23 09:28:44;;;;;;;;;;;;;;;17.21;44.86;100058.03;5011740;28;902;-58
2021/09/23 09:31:11;;;;;;;;;;;;;;;17.36;44.14;100067.56;5011722;28;935;-59
2021/09/23 09:33:39;;;;;;;;;;;;;;;17.61;43.70;100060.50;4994159;28;1334;-59
2021/09/23 09:36:23;;;;;;;;;;;;;;;17.78;43.65;100056.38;5011796;28;2020;-59
2021/09/23 09:38:53;;;;;;;;;;;;;;;18.06;43.00;100040.75;5011591;28;1212;-59
2021/09/23 09:41:27;;;;;;;;;;;;;;;18.21;43.04;100045.88;5011754;28;905;-58
2021/09/23 09:43:55;;;;;;;;;;;;;;;17.66;43.33;100057.13;5011544;28;859;-58
2021/09/23 09:46:23;;;;;;;;;;;;;;;16.83;44.54;100058.66;5011982;28;842;-58
2021/09/23 09:48:51;;;;;;;;;;;;;;;16.42;45.34;100055.28;5011581;28;914;-58
2021/09/23 09:51:37;;;;;;;;;;;;;;;17.16;44.41;100059.38;5011660;28;858;-59
2021/09/23 09:54:05;;;;;;;;;;;;;;;17.84;41.53;100060.22;5011002;28;1500;-58
2021/09/23 09:56:32;;;;;;;;;;;;;;;17.59;42.01;100062.94;5011623;28;1967;-58
2021/09/23 09:59:07;;;;;;;;;;;;;;;17.29;42.57;100059.41;5011809;28;831;-58
2021/09/23 10:01:33;;;;;;;;;;;;;;;16.64;43.09;100049.16;5011465;28;850;-58
2021/09/23 10:04:01;;;;;;;;;;;;;;;16.15;45.17;100057.53;5011558;28;917;-58
2021/09/23 10:06:28;;;;;;;;;;;;;;;16.91;44.74;100055.25;5011452;28;838;-58
2021/09/23 10:08:55;;;;;;;;;;;;;;;17.68;43.01;100055.47;5015300;28;866;-59
2021/09/23 10:11:22;;;;;;;;;;;;;;;18.19;42.05;100051.16;5015085;28;948;-58
2021/09/23 10:13:49;;;;;;;;;;;;;;;18.46;41.85;100042.28;5015244;28;819;-59
2021/09/23 10:16:16;;;;;;;;;;;;;;;18.77;40.93;100042.38;5015244;28;1885;-59
2021/09/23 10:18:43;;;;;;;;;;;;;;;18.61;40.62;100040.56;5015120;28;869;-58
2021/09/23 10:21:11;;;;;;;;;;;;;;;17.48;41.55;100050.06;5015086;28;938;-58
2021/09/23 10:23:40;;;;;;;;;;;;;;;16.59;43.29;100052.47;4997580;28;939;-58
2021/09/23 10:26:08;;;;;;;;;;;;;;;17.08;43.63;100060.78;5014939;28;946;-58
2021/09/23 10:28:36;;;;;;;;;;;;;;;17.12;43.32;100062.25;5014905;28;1031;-58
2021/09/23 10:31:09;;;;;;;;;;;;;;;17.58;42.75;100061.38;5014828;28;919;-58
2021/09/23 10:33:39;;;;;;;;;;;;;;;18.86;40.70;100042.53;5015055;28;950;-58
2021/09/23 10:36:07;;;;;;;;;;;;;;;19.47;39.77;100042.31;5014729;28;1882;-58
2021/09/23 10:38:34;;;;;;;;;;;;;;;19.75;38.98;100046.84;5014633;28;947;-58
2021/09/23 10:41:02;;;;;;;;;;;;;;;20.40;37.03;100050.69;5014550;28;1315;-58
2021/09/23 10:43:28;;;;;;;;;;;;;;;21.21;35.79;100049.66;5014676;28;838;-59
2021/09/23 10:45:54;;;;;;;;;;;;;;;20.79;35.14;100053.09;5014671;28;850;-58
2021/09/23 10:48:31;;;;;;;;;;;;;;;19.97;36.43;100058.03;4997052;28;1326;-59
2021/09/23 10:50:59;;;;;;;;;;;;;;;19.47;37.83;100047.94;5014481;28;834;-58
2021/09/23 10:53:25;;;;;;;;;;;;;;;19.83;37.76;100036.16;5014605;28;902;-58
2021/09/23 10:55:52;;;;;;;;;;;;;;;19.35;38.31;100035.53;5014446;28;1926;-58
2021/09/23 10:58:22;;;;;;;;;;;;;;;19.87;38.43;100045.22;5014442;28;1166;-58
2021/09/23 11:00:49;;;;;;;;;;;;;;;20.36;37.69;100043.66;5014224;28;920;-59
2021/09/23 11:03:16;;;;;;;;;;;;;;;20.00;38.31;100039.50;5014301;28;918;-58
2021/09/23 11:05:43;;;;;;;;;;;;;;;19.89;38.30;100039.16;5014209;28;850;-58
2021/09/23 11:08:14;;;;;;;;;;;;;;;20.15;37.33;100026.44;5014182;28;864;-58
2021/09/23 11:10:41;;;;;;;;;;;;;;;19.75;37.20;100032.06;5014225;28;856;-59
2021/09/23 11:13:09;;;;;;;;;;;;;;;19.27;38.28;100028.66;4996615;28;930;-58
2021/09/23 11:15:38;;;;;;;;;;;;;;;18.76;38.64;100032.44;5014087;28;1886;-58
2021/09/23 11:18:07;;;;;;;;;;;;;;;18.71;39.41;100030.19;5013669;28;791;-57
2021/09/23 11:20:35;;;;;;;;;;;;;;;19.09;39.03;100027.28;5013970;28;1057;-57
2021/09/23 11:23:04;;;;;;;;;;;;;;;19.26;38.70;100027.84;5014002;28;893;-57
2021/09/23 11:25:33;;;;;;;;;;;;;;;19.60;38.04;100020.59;5014231;28;835;-58
2021/09/23 11:28:00;;;;;;;;;;;;;;;19.48;37.55;100015.84;5013813;28;851;-58
2021/09/23 11:30:29;;;;;;;;;;;;;;;18.97;38.72;100016.94;5013793;28;873;-57
2021/09/23 11:32:57;;;;;;;;;;;;;;;19.18;38.94;100016.16;4996213;28;913;-58
2021/09/23 11:35:27;;;;;;;;;;;;;;;20.03;37.64;100010.50;4996401;28;1105;-58
2021/09/23 11:37:55;;;;;;;;;;;;;;;20.28;36.88;100011.50;5013582;28;2004;-58
2021/09/23 11:40:23;;;;;;;;;;;;;;;21.12;35.98;100016.75;5013470;28;1402;-58
2021/09/23 11:42:51;;;;;;;;;;;;;;;21.64;34.92;100013.97;4996118;28;863;-59
2021/09/23 11:45:24;;;;;;;;;;;;;;;20.82;35.53;100012.84;5013817;28;834;-58
2021/09/23 11:48:00;;;;;;;;;;;;;;;20.97;35.87;100004.56;5013543;28;795;-58
2021/09/23 11:50:27;;;;;;;;;;;;;;;21.39;35.02;100006.69;5013357;28;910;-59
2021/09/23 11:52:56;;;;;;;;;;;;;;;21.39;34.71;100015.13;5013394;28;803;-59
2021/09/23 11:55:23;;;;;;;;;;;;;;;21.24;34.38;100014.22;5013387;28;886;-59
2021/09/23 11:57:58;;;;;;;;;;;;;;;20.79;35.36;100008.16;4995716;28;1906;-59
2021/09/23 12:00:30;;;;;;;;;;;;;;;20.73;35.76;100002.38;5013269;28;818;-58
2021/09/23 12:02:58;;;;;;;;;;;;;;;20.78;35.62;100007.38;5013262;28;873;-58
2021/09/23 12:05:30;;;;;;;;;;;;;;;20.63;35.30;100003.63;5013152;28;846;-58
2021/09/23 12:08:04;;;;;;;;;;;;;;;20.25;35.65;100010.41;4995823;28;1049;-58
2021/09/23 12:10:31;;;;;;;;;;;;;;;18.98;36.93;100005.25;5013352;28;887;-58
2021/09/23 12:13:00;;;;;;;;;;;;;;;18.81;37.75;100005.91;5013267;28;929;-58
2021/09/23 12:15:31;;;;;;;;;;;;;;;18.46;37.81;100001.06;5012764;28;1184;-58
2021/09/23 12:17:58;;;;;;;;;;;;;;;17.80;39.18;100000.03;5012839;28;1948;-58
2021/09/23 12:20:42;;;;;;;;;;;;;;;17.93;39.88;99990.41;5012815;28;863;-57
2021/09/23 12:23:25;;;;;;;;;;;;;;;18.10;39.47;99987.50;5012732;28;895;-58
2021/09/23 12:26:05;;;;;;;;;;;;;;;18.67;38.53;99984.75;5012695;28;874;-58
2021/09/23 12:28:34;;;;;;;;;;;;;;;19.42;36.78;99975.66;5012675;28;889;-58
2021/09/23 12:31:02;;;;;;;;;;;;;;;18.99;37.18;99980.84;4994673;28;800;-58
2021/09/23 12:33:29;;;;;;;;;;;;;;;18.63;37.90;99984.91;5012564;28;858;-58
2021/09/23 12:36:14;;;;;;;;;;;;;;;18.14;38.58;99974.97;5012808;28;1893;-58
2021/09/23 12:38:40;;;;;;;;;;;;;;;17.69;38.79;99978.00;4994887;28;894;-58
2021/09/23 12:41:17;;;;;;;;;;;;;;;17.19;39.88;99988.66;4992981;28;587;-57
2021/09/23 12:43:44;;;;;;;;;;;;;;;16.91;40.52;99993.03;4992916;28;799;-57
2021/09/23 12:46:15;;;;;;;;;;;;;;;16.72;40.75;99987.13;4992746;28;908;-57
2021/09/23 12:48:43;;;;;;;;;;;;;;;16.58;41.16;99986.72;4993040;28;894;-57
2021/09/23 12:51:13;;;;;;;;;;;;;;;16.54;41.86;99989.63;4992647;28;828;-57
2021/09/23 12:53:40;;;;;;;;;;;;;;;16.46;41.50;99989.03;4992706;28;869;-57
2021/09/23 12:56:07;;;;;;;;;;;;;;;16.44;41.58;99982.31;4992670;28;1960;-58
2021/09/23 12:58:34;;;;;;;;;;;;;;;16.54;41.89;99986.84;4992705;28;846;-58
2021/09/23 13:01:16;;;;;;;;;;;;;;;16.67;41.81;99989.69;4992592;28;882;-58
2021/09/23 13:03:43;;;;;;;;;;;;;;;16.94;41.58;99998.53;4992736;28;965;-58
2021/09/23 13:06:11;;;;;;;;;;;;;;;17.12;41.12;99986.06;4992735;28;986;-58
2021/09/23 13:08:42;;;;;;;;;;;;;;;17.42;40.79;99984.78;4992657;28;803;-58
2021/09/23 13:11:11;;;;;;;;;;;;;;;17.75;40.40;99977.00;4992832;28;882;-58
2021/09/23 13:13:41;;;;;;;;;;;;;;;17.88;40.51;99962.22;4992338;28;922;-58
2021/09/23 13:16:08;;;;;;;;;;;;;;;18.24;40.24;99967.41;4992461;28;1878;-58
2021/09/23 13:18:34;;;;;;;;;;;;;;;18.48;39.90;99967.81;4992392;28;823;-58
2021/09/23 13:21:06;;;;;;;;;;;;;;;18.46;40.01;99973.09;4992338;28;835;-58
2021/09/23 13:23:37;;;;;;;;;;;;;;;18.62;39.98;99971.34;4992318;28;815;-58
2021/09/23 13:26:06;;;;;;;;;;;;;;;18.62;39.36;99968.53;4992336;28;862;-58
2021/09/23 13:28:40;;;;;;;;;;;;;;;17.96;39.83;99977.53;4992485;28;826;-58
2021/09/23 13:31:09;;;;;;;;;;;;;;;17.41;40.72;99977.66;4992131;28;915;-58
2021/09/23 13:33:37;;;;;;;;;;;;;;;17.05;41.74;99986.28;4992260;28;819;-58
2021/09/23 13:36:05;;;;;;;;;;;;;;;16.81;42.19;99982.94;4992019;28;1886;-58
2021/09/23 13:38:33;;;;;;;;;;;;;;;16.49;42.72;99987.34;4992077;28;935;-58
2021/09/23 13:41:01;;;;;;;;;;;;;;;16.22;43.22;99988.44;5011623;28;1462;-58
2021/09/23 13:43:28;;;;;;;;;;;;;;;16.03;43.66;99986.53;5015756;28;1030;-58
2021/09/23 13:45:55;;;;;;;;;;;;;;;15.94;44.19;99984.38;5015860;28;839;-58